Time;durP1;ratioP1;P1;durP2;ratioP2;P2;SDS_P1;SDS_P2;PMS_P1;PMS_P2;Temp;Humidity;BMP_temperature;BMP_pressure;BME280_temperature;BME280_humidity;BME280_pressure;Samples;Min_cycle;Max_cycle;Signal;HPM_P1;HPM_P2
2022/11/19 00:00:06;;;;;;;4.62;2.40;;;12.30;74.00;;;;;;2623247;52;20978;-74
2022/11/19 00:02:39;;;;;;;2.83;1.45;;;12.30;74.00;;;;;;2563840;52;21495;-74
2022/11/19 00:05:05;;;;;;;3.62;1.60;;;12.40;74.00;;;;;;2454096;52;20931;-75
2022/11/19 00:07:32;;;;;;;2.70;1.15;;;12.30;74.00;;;;;;2495732;52;21542;-74
2022/11/19 00:09:59;;;;;;;3.08;1.33;;;12.30;74.00;;;;;;2623558;52;20918;-75
2022/11/19 00:15:09;;;;;;;1.80;0.80;;;12.30;74.00;;;;;;2623861;52;20982;-75
2022/11/19 00:17:37;;;;;;;2.65;0.80;;;12.30;74.00;;;;;;2371586;53;21375;-74
2022/11/19 00:20:04;;;;;;;1.75;0.75;;;12.30;74.00;;;;;;2615521;52;20927;-75
2022/11/19 00:22:30;;;;;;;1.00;0.47;;;12.30;74.00;;;;;;2469966;53;21022;-75
2022/11/19 00:24:57;;;;;;;1.12;0.50;;;12.30;73.90;;;;;;2351972;53;21009;-75
2022/11/19 00:27:23;;;;;;;2.10;0.60;;;12.30;73.90;;;;;;2475683;52;21038;-74
2022/11/19 00:29:50;;;;;;;2.12;0.70;;;12.30;73.90;;;;;;2370415;53;20931;-75
2022/11/19 00:32:19;;;;;;;2.08;0.70;;;12.30;73.90;;;;;;2605325;52;21058;-75
2022/11/19 00:34:46;;;;;;;2.33;0.62;;;12.30;73.80;;;;;;2607655;52;20942;-74
2022/11/19 00:37:13;;;;;;;1.85;0.57;;;12.30;73.80;;;;;;2623267;52;20954;-75
2022/11/19 00:39:39;;;;;;;2.45;0.60;;;12.30;73.80;;;;;;2624173;52;20919;-75
2022/11/19 00:42:07;;;;;;;1.30;0.60;;;12.30;73.80;;;;;;2404081;52;20906;-75
2022/11/19 00:44:38;;;;;;;2.10;0.60;;;12.30;73.90;;;;;;2613734;52;20982;-74
2022/11/19 00:47:04;;;;;;;1.12;0.50;;;12.30;73.80;;;;;;2371218;53;20985;-75
2022/11/19 00:49:31;;;;;;;1.23;0.40;;;12.30;73.80;;;;;;2371164;53;20902;-75
2022/11/19 00:51:57;;;;;;;2.53;0.60;;;12.30;73.70;;;;;;2524471;52;20986;-79
2022/11/19 00:54:23;;;;;;;2.72;0.70;;;12.30;73.70;;;;;;2527214;52;2280633;-77
2022/11/19 00:56:50;;;;;;;2.47;0.73;;;12.30;73.70;;;;;;2378453;52;20958;-76
2022/11/19 00:59:16;;;;;;;3.30;0.60;;;12.30;73.70;;;;;;2593405;52;21369;-77
2022/11/19 01:01:43;;;;;;;0.90;0.50;;;12.20;73.60;;;;;;2535712;52;20987;-74
2022/11/19 01:04:10;;;;;;;2.40;0.70;;;12.20;73.60;;;;;;2370915;53;20902;-74
2022/11/19 01:06:36;;;;;;;1.60;0.68;;;12.20;73.60;;;;;;2505539;52;21420;-78
2022/11/19 01:09:02;;;;;;;1.92;0.80;;;12.20;73.60;;;;;;2370927;53;20918;-78
2022/11/19 01:11:31;;;;;;;1.15;0.47;;;12.20;73.60;;;;;;2467633;52;21007;-78
2022/11/19 01:13:57;;;;;;;2.08;0.60;;;12.20;73.60;;;;;;2360844;54;20943;-79
2022/11/19 01:16:29;;;;;;;1.52;0.60;;;12.20;73.60;;;;;;2589085;52;20979;-76
2022/11/19 01:18:55;;;;;;;1.62;0.62;;;12.20;73.60;;;;;;2473105;52;20907;-74
2022/11/19 01:21:24;;;;;;;3.58;0.70;;;12.20;73.60;;;;;;2622926;52;20930;-78
2022/11/19 01:23:50;;;;;;;1.45;0.60;;;12.20;73.60;;;;;;2623388;52;21542;-77
2022/11/19 01:26:17;;;;;;;1.90;0.70;;;12.20;73.70;;;;;;2622825;52;21572;-76
2022/11/19 01:28:43;;;;;;;1.65;0.75;;;12.20;73.80;;;;;;2622971;52;20978;-75
2022/11/19 01:31:20;;;;;;;1.87;0.90;;;12.20;73.80;;;;;;2376664;52;20918;-79
2022/11/19 01:33:47;;;;;;;2.50;0.70;;;12.10;73.80;;;;;;2370622;53;20981;-75
2022/11/19 01:36:15;;;;;;;1.95;0.70;;;12.20;73.90;;;;;;2622635;52;20922;-78
2022/11/19 01:38:49;;;;;;;2.80;0.85;;;12.20;73.90;;;;;;2367667;53;20982;-77
2022/11/19 01:41:20;;;;;;;2.35;0.90;;;12.20;73.90;;;;;;2424166;52;20930;-77
2022/11/19 01:46:27;;;;;;;2.60;0.90;;;12.20;73.90;;;;;;2623156;52;21446;-78
2022/11/19 01:50:46;;;;;;;1.30;0.60;;;12.20;73.20;;;;;;2622320;52;20915;-77
2022/11/19 01:53:13;;;;;;;1.17;0.55;;;12.20;73.80;;;;;;2416700;52;20910;-77
2022/11/19 01:55:40;;;;;;;2.30;0.70;;;12.20;73.90;;;;;;2555815;52;20938;-75
2022/11/19 01:58:07;;;;;;;1.87;0.73;;;12.20;73.90;;;;;;2574847;52;20934;-75
2022/11/19 02:00:33;;;;;;;2.83;0.88;;;12.20;73.90;;;;;;2409995;52;21820;-75
2022/11/19 02:03:00;;;;;;;1.90;0.80;;;12.20;74.00;;;;;;2521326;52;20942;-75
2022/11/19 02:05:26;;;;;;;3.87;0.73;;;12.20;74.00;;;;;;2623631;52;21014;-77
2022/11/19 02:07:57;;;;;;;2.08;0.85;;;12.20;74.00;;;;;;2623522;52;20959;-77
2022/11/19 02:10:38;;;;;;;2.15;1.00;;;12.20;74.00;;;;;;2623131;52;20966;-78
2022/11/19 02:15:04;;;;;;;2.33;0.80;;;12.20;73.80;;;;;;2623138;52;20898;-77
2022/11/19 02:24:12;;;;;;;2.72;0.75;;;12.20;73.20;;;;;;2463836;52;20959;-77
2022/11/19 02:27:16;;;;;;;0.73;0.30;;;12.20;73.20;;;;;;2423737;52;20916;-79
2022/11/19 02:33:18;;;;;;;1.67;0.65;;;12.20;73.30;;;;;;2589795;52;21024;-79
2022/11/19 02:35:58;;;;;;;3.17;0.70;;;12.20;73.70;;;;;;2589862;52;21283;-78
2022/11/19 02:38:35;;;;;;;2.20;0.70;;;12.20;73.60;;;;;;2589529;52;20901;-79
2022/11/19 02:41:33;;;;;;;1.67;0.70;;;12.20;73.80;;;;;;2342924;53;20976;-75
2022/11/19 02:46:40;;;;;;;3.25;0.70;;;12.10;73.50;;;;;;2339207;54;20919;-77
2022/11/19 02:49:06;;;;;;;1.80;0.60;;;12.20;73.90;;;;;;2623803;52;20982;-78
2022/11/19 02:51:32;;;;;;;2.67;0.65;;;12.10;73.70;;;;;;2623514;52;20901;-73
2022/11/19 02:53:59;;;;;;;2.45;0.80;;;12.20;73.80;;;;;;2375635;52;20966;-79
2022/11/19 02:56:48;;;;;;;2.28;0.73;;;12.10;73.80;;;;;;2454894;52;21380;-75
2022/11/19 03:04:44;;;;;;;2.70;0.85;;;12.10;73.80;;;;;;2589959;52;21453;-77
2022/11/19 03:07:16;;;;;;;2.22;0.80;;;12.10;73.90;;;;;;2342794;53;21061;-76
2022/11/19 03:09:56;;;;;;;3.08;0.85;;;12.10;73.80;;;;;;2344133;53;21679;-74
2022/11/19 03:12:53;;;;;;;1.77;0.70;;;12.10;73.80;;;;;;2559960;52;20931;-75
2022/11/19 03:18:44;;;;;;;1.98;0.85;;;12.10;73.80;;;;;;2375042;53;20949;-77
2022/11/19 03:21:28;;;;;;;4.60;1.02;;;12.10;73.50;;;;;;2525828;52;20937;-78
2022/11/19 03:23:57;;;;;;;1.75;0.75;;;12.10;73.70;;;;;;2589393;52;20913;-75
2022/11/19 03:26:35;;;;;;;1.52;0.70;;;12.10;74.00;;;;;;2589284;52;20953;-78
2022/11/19 03:29:05;;;;;;;1.85;0.80;;;12.10;74.10;;;;;;2350808;54;20923;-76
2022/11/19 03:31:31;;;;;;;2.45;0.80;;;12.20;74.30;;;;;;2535033;52;21492;-79
2022/11/19 03:33:59;;;;;;;1.50;0.60;;;12.20;74.30;;;;;;2477624;52;20938;-77
2022/11/19 03:36:29;;;;;;;1.35;0.47;;;12.20;74.30;;;;;;2376068;52;21598;-77
2022/11/19 03:38:58;;;;;;;1.85;0.65;;;12.20;74.30;;;;;;2371226;53;20890;-78
2022/11/19 03:41:25;;;;;;;4.05;0.70;;;12.20;74.20;;;;;;2623131;52;21168;-80
2022/11/19 03:43:54;;;;;;;1.77;0.70;;;12.20;74.20;;;;;;2371082;53;20994;-76
2022/11/19 03:46:21;;;;;;;2.55;0.90;;;12.20;74.20;;;;;;2528758;52;20942;-76
2022/11/19 03:48:48;;;;;;;1.37;0.60;;;12.20;74.20;;;;;;2391120;52;20923;-75
2022/11/19 03:51:17;;;;;;;1.70;0.68;;;12.20;74.20;;;;;;2376006;52;21475;-80
2022/11/19 03:53:43;;;;;;;2.20;0.80;;;12.20;74.20;;;;;;2502928;52;20918;-76
2022/11/19 03:56:12;;;;;;;2.33;0.95;;;12.20;74.10;;;;;;2371006;53;21030;-77
2022/11/19 03:58:43;;;;;;;1.98;0.88;;;12.20;74.10;;;;;;2563831;52;20934;-79
2022/11/19 04:01:09;;;;;;;2.83;1.05;;;12.20;74.10;;;;;;2470450;52;20977;-79
2022/11/19 04:03:36;;;;;;;2.85;1.00;;;12.20;74.10;;;;;;2623709;52;20921;-76
2022/11/19 04:06:03;;;;;;;1.65;0.80;;;12.20;74.10;;;;;;2370703;53;20923;-81
2022/11/19 04:08:29;;;;;;;2.90;1.00;;;12.20;74.00;;;;;;2370920;53;21736;-78
2022/11/19 04:10:57;;;;;;;3.83;1.10;;;12.20;74.00;;;;;;2371296;53;20965;-75
2022/11/19 04:13:23;;;;;;;3.78;1.08;;;12.20;74.00;;;;;;2442361;52;21478;-76
2022/11/19 04:15:49;;;;;;;3.40;1.10;;;12.20;74.00;;;;;;2623539;52;21084;-78
2022/11/19 04:18:16;;;;;;;3.05;1.12;;;12.20;74.00;;;;;;2498226;52;20950;-77
2022/11/19 04:20:45;;;;;;;2.10;0.95;;;12.20;73.90;;;;;;2623450;52;20938;-80
2022/11/19 04:23:12;;;;;;;2.92;1.17;;;12.20;73.90;;;;;;2546806;52;21451;-77
2022/11/19 04:25:40;;;;;;;3.92;1.00;;;12.20;73.90;;;;;;2370480;53;21002;-77
2022/11/19 04:28:06;;;;;;;2.30;1.00;;;12.20;73.90;;;;;;2509428;52;21398;-78
2022/11/19 04:30:33;;;;;;;2.47;1.25;;;12.20;73.90;;;;;;2371002;53;21439;-79
2022/11/19 04:32:59;;;;;;;1.98;0.82;;;12.20;73.80;;;;;;2370962;53;20991;-80
2022/11/19 04:35:25;;;;;;;2.17;0.98;;;12.20;73.80;;;;;;2370517;53;20978;-77
2022/11/19 04:37:52;;;;;;;2.72;0.95;;;12.20;73.90;;;;;;2371291;53;20930;-78
2022/11/19 04:40:19;;;;;;;2.85;1.10;;;12.20;73.80;;;;;;2370498;53;21277;-79
2022/11/19 04:42:45;;;;;;;2.35;1.00;;;12.20;73.80;;;;;;2471114;52;21018;-74
2022/11/19 04:45:11;;;;;;;3.28;0.90;;;12.20;73.80;;;;;;2370931;53;21189;-75
2022/11/19 04:47:38;;;;;;;4.28;1.62;;;12.20;73.80;;;;;;2371022;53;21094;-78
2022/11/19 04:50:05;;;;;;;2.40;1.00;;;12.20;73.70;;;;;;2623702;52;21427;-76
2022/11/19 04:52:31;;;;;;;2.72;1.00;;;12.20;73.70;;;;;;2371146;53;20934;-78
2022/11/19 04:54:59;;;;;;;1.85;0.80;;;12.20;73.70;;;;;;2623309;52;20915;-76
2022/11/19 04:57:26;;;;;;;2.30;1.05;;;12.10;73.50;;;;;;2622718;52;20968;-78
2022/11/19 04:59:52;;;;;;;2.47;0.98;;;12.10;73.50;;;;;;2579619;52;21029;-77
2022/11/19 05:02:18;;;;;;;2.95;1.10;;;12.10;73.50;;;;;;2622868;52;21837;-74
2022/11/19 05:04:45;;;;;;;2.87;1.10;;;12.10;73.50;;;;;;2370813;53;21472;-77
2022/11/19 05:07:11;;;;;;;2.00;1.00;;;12.10;73.50;;;;;;2465201;52;20923;-76
2022/11/19 05:09:38;;;;;;;2.28;1.00;;;12.10;73.50;;;;;;2370995;53;20978;-78
2022/11/19 05:12:06;;;;;;;2.28;0.90;;;12.00;73.50;;;;;;2536604;52;20922;-76
2022/11/19 05:14:32;;;;;;;2.12;1.00;;;12.10;73.60;;;;;;2370486;53;20939;-77
2022/11/19 05:16:58;;;;;;;2.67;0.88;;;12.00;73.50;;;;;;2540638;52;20922;-79
2022/11/19 05:19:25;;;;;;;1.27;0.68;;;12.00;73.50;;;;;;2485630;52;21451;-77
2022/11/19 05:21:52;;;;;;;1.62;0.70;;;12.00;73.60;;;;;;2545372;52;20927;-76
2022/11/19 05:24:18;;;;;;;2.95;0.90;;;12.00;73.60;;;;;;2370580;53;21183;-79
2022/11/19 05:26:44;;;;;;;2.83;1.10;;;12.00;73.50;;;;;;2397950;52;20942;-77
2022/11/19 05:29:11;;;;;;;1.80;0.90;;;12.00;73.50;;;;;;2370967;53;21002;-76
2022/11/19 05:31:38;;;;;;;5.80;1.02;;;12.00;73.50;;;;;;2503400;52;20926;-76
2022/11/19 05:34:04;;;;;;;2.83;0.70;;;12.00;73.50;;;;;;2370981;53;21375;-78
2022/11/19 05:36:30;;;;;;;2.35;1.00;;;12.00;73.40;;;;;;2424347;52;20954;-74
2022/11/19 05:38:57;;;;;;;2.05;0.85;;;12.00;73.40;;;;;;2525486;52;21457;-79
2022/11/19 05:41:24;;;;;;;2.47;0.65;;;12.00;73.40;;;;;;2371001;53;20983;-76
2022/11/19 05:43:50;;;;;;;1.75;0.80;;;12.00;74.10;;;;;;2378366;52;21333;-76
2022/11/19 05:46:16;;;;;;;1.40;0.68;;;11.90;73.40;;;;;;2370699;53;20903;-78
2022/11/19 05:48:43;;;;;;;3.28;0.85;;;11.90;73.30;;;;;;2370883;53;20915;-77
2022/11/19 05:51:15;;;;;;;2.87;1.02;;;11.90;73.30;;;;;;2370566;53;20922;-77
2022/11/19 05:53:41;;;;;;;2.83;0.80;;;11.90;73.20;;;;;;2371327;53;21476;-78
2022/11/19 05:56:08;;;;;;;2.03;0.90;;;11.90;73.30;;;;;;2370801;53;20918;-80
2022/11/19 05:58:35;;;;;;;1.40;0.60;;;11.90;73.30;;;;;;2370794;53;21254;-79
2022/11/19 06:01:02;;;;;;;2.28;0.88;;;11.90;73.40;;;;;;2560174;52;21058;-76
2022/11/19 06:03:28;;;;;;;2.30;0.80;;;11.80;73.30;;;;;;2371178;53;20883;-77
2022/11/19 06:05:54;;;;;;;2.35;0.90;;;11.90;73.50;;;;;;2488921;52;21507;-80
2022/11/19 06:08:21;;;;;;;1.77;0.80;;;11.80;73.40;;;;;;2623414;52;21470;-77
2022/11/19 06:10:47;;;;;;;2.92;0.73;;;11.80;73.50;;;;;;2361772;53;21773;-76
2022/11/19 06:13:13;;;;;;;2.17;0.80;;;11.80;73.50;;;;;;2443496;53;21440;-75
2022/11/19 06:15:40;;;;;;;2.17;0.80;;;11.80;73.50;;;;;;2462909;52;20926;-75
2022/11/19 06:18:06;;;;;;;1.45;0.70;;;11.80;73.60;;;;;;2623588;52;20951;-76
2022/11/19 06:20:32;;;;;;;2.35;0.80;;;11.80;73.60;;;;;;2610492;52;20939;-77
2022/11/19 06:22:58;;;;;;;2.83;0.90;;;11.80;73.60;;;;;;2370801;53;20934;-81
2022/11/19 06:25:25;;;;;;;2.17;0.82;;;11.80;73.60;;;;;;2487156;52;20993;-79
2022/11/19 06:27:51;;;;;;;2.15;1.00;;;11.80;73.60;;;;;;2622554;52;21736;-77
2022/11/19 06:30:18;;;;;;;2.35;0.80;;;11.80;73.60;;;;;;2440296;52;20922;-78
2022/11/19 06:32:44;;;;;;;2.78;1.02;;;11.80;73.60;;;;;;2370466;53;21446;-76
2022/11/19 06:35:12;;;;;;;2.60;0.90;;;11.80;73.60;;;;;;2369616;53;21041;-77
2022/11/19 06:37:39;;;;;;;2.72;0.98;;;11.80;73.60;;;;;;2370268;53;21005;-77
2022/11/19 06:40:07;;;;;;;2.65;0.70;;;11.80;73.60;;;;;;2574717;52;21751;-78
2022/11/19 06:42:36;;;;;;;2.97;0.77;;;11.80;73.60;;;;;;2536067;52;21682;-74
2022/11/19 06:45:09;;;;;;;2.65;0.70;;;11.80;73.60;;;;;;2371124;52;20986;-78
2022/11/19 06:47:36;;;;;;;2.40;0.80;;;11.80;73.50;;;;;;2350200;54;21005;-74
2022/11/19 06:50:03;;;;;;;3.33;0.90;;;11.80;74.30;;;;;;2372361;53;20954;-76
2022/11/19 06:52:30;;;;;;;3.10;0.75;;;11.70;73.60;;;;;;2377018;52;21257;-77
2022/11/19 06:54:57;;;;;;;2.35;1.00;;;11.70;73.60;;;;;;2370253;53;21387;-76
2022/11/19 06:57:23;;;;;;;2.75;0.80;;;11.80;73.70;;;;;;2622421;52;21423;-79
2022/11/19 06:59:50;;;;;;;2.85;1.08;;;11.80;73.70;;;;;;2370169;53;20993;-78
2022/11/19 07:02:16;;;;;;;2.50;0.98;;;11.70;73.60;;;;;;2622031;52;21185;-75
2022/11/19 07:04:46;;;;;;;2.37;0.80;;;11.70;73.70;;;;;;2622735;52;20931;-77
2022/11/19 07:07:12;;;;;;;2.35;0.82;;;11.70;73.70;;;;;;2518210;52;21364;-75
2022/11/19 07:09:38;;;;;;;4.55;0.75;;;11.80;73.80;;;;;;2369894;53;20931;-78
2022/11/19 07:12:06;;;;;;;2.50;1.00;;;11.70;73.70;;;;;;2346480;53;21016;-76
2022/11/19 07:14:33;;;;;;;2.65;1.10;;;11.70;73.60;;;;;;2404658;52;20921;-74
2022/11/19 07:16:59;;;;;;;3.62;1.45;;;11.80;73.80;;;;;;2342514;53;21453;-77
2022/11/19 07:19:25;;;;;;;3.42;1.77;;;11.80;73.80;;;;;;2588771;52;21354;-78
2022/11/19 07:21:52;;;;;;;3.97;2.08;;;11.80;73.80;;;;;;2342855;53;21015;-76
2022/11/19 07:24:19;;;;;;;3.90;1.90;;;11.70;73.80;;;;;;2341971;53;20944;-77
2022/11/19 07:26:45;;;;;;;3.37;1.67;;;11.80;73.90;;;;;;2341986;53;20937;-76
2022/11/19 07:29:13;;;;;;;3.55;1.83;;;11.80;73.90;;;;;;2589262;52;20969;-80
2022/11/19 07:31:39;;;;;;;5.50;2.28;;;11.80;74.00;;;;;;2343312;53;21740;-79
2022/11/19 07:34:09;;;;;;;6.72;2.00;;;11.80;74.10;;;;;;2343293;53;20905;-78
2022/11/19 07:36:35;;;;;;;4.62;1.85;;;11.80;74.00;;;;;;2343616;53;21036;-76
2022/11/19 07:39:03;;;;;;;3.83;1.80;;;11.80;74.10;;;;;;2351035;53;21344;-75
2022/11/19 07:44:14;;;;;;;6.12;2.00;;;11.80;74.00;;;;;;2346947;53;21501;-77
2022/11/19 07:46:41;;;;;;;4.60;1.80;;;11.80;74.10;;;;;;2360911;53;20971;-77
2022/11/19 07:49:09;;;;;;;3.15;1.37;;;11.80;74.20;;;;;;2435983;52;21004;-78
2022/11/19 07:51:35;;;;;;;4.60;1.70;;;11.80;74.20;;;;;;2343776;53;20921;-79
2022/11/19 07:54:02;;;;;;;3.42;1.60;;;11.80;74.20;;;;;;2343255;53;20961;-80
2022/11/19 07:56:28;;;;;;;3.50;1.75;;;11.80;74.20;;;;;;2342864;53;20933;-76
2022/11/19 07:58:55;;;;;;;6.05;1.90;;;11.90;74.30;;;;;;2343346;53;20909;-76
2022/11/19 08:01:22;;;;;;;4.87;2.35;;;11.90;74.30;;;;;;2342677;53;20965;-76
2022/11/19 08:03:49;;;;;;;4.60;2.25;;;11.90;74.20;;;;;;2380599;53;20934;-77
2022/11/19 08:06:22;;;;;;;4.03;2.15;;;11.90;74.20;;;;;;2371015;53;20923;-74
2022/11/19 08:08:50;;;;;;;5.00;2.00;;;11.90;74.20;;;;;;2371486;53;20949;-74
2022/11/19 08:11:20;;;;;;;4.32;1.90;;;11.90;74.20;;;;;;2370969;53;20998;-76
2022/11/19 08:13:47;;;;;;;4.55;2.12;;;11.90;74.20;;;;;;2508495;52;21384;-78
2022/11/19 08:18:10;;;;;;;4.93;1.75;;;12.00;74.30;;;;;;2371425;53;20943;-77
2022/11/19 08:20:39;;;;;;;3.12;1.48;;;12.00;74.20;;;;;;2484182;53;21022;-75
2022/11/19 08:23:06;;;;;;;4.90;2.33;;;12.00;74.10;;;;;;2519702;52;20998;-77
2022/11/19 08:25:33;;;;;;;6.70;2.17;;;12.00;74.20;;;;;;2415192;52;21423;-81
2022/11/19 08:28:00;;;;;;;4.43;1.73;;;12.00;74.30;;;;;;2371698;53;20950;-75
2022/11/19 08:30:26;;;;;;;5.72;2.35;;;12.00;74.30;;;;;;2350303;53;20919;-76
2022/11/19 08:32:53;;;;;;;3.85;2.22;;;12.00;74.30;;;;;;2589676;52;20933;-76
2022/11/19 08:35:20;;;;;;;5.35;2.47;;;12.00;74.30;;;;;;2383836;52;21051;-78
2022/11/19 08:37:47;;;;;;;4.55;2.00;;;12.00;74.30;;;;;;2351604;53;21821;-77
2022/11/19 08:40:13;;;;;;;4.68;1.92;;;12.10;74.50;;;;;;2563586;52;20922;-77
2022/11/19 08:46:50;;;;;;;2.87;1.40;;;12.10;74.50;;;;;;2623692;52;20910;-78
2022/11/19 08:49:17;;;;;;;3.50;1.50;;;12.10;73.90;;;;;;2370432;53;21312;-77
2022/11/19 08:51:44;;;;;;;3.40;1.48;;;12.10;74.50;;;;;;2623249;52;21375;-77
2022/11/19 08:54:11;;;;;;;4.57;2.03;;;12.20;74.60;;;;;;2563269;52;20986;-78
2022/11/19 08:56:38;;;;;;;4.80;1.45;;;12.20;74.60;;;;;;2399672;53;20920;-78
2022/11/19 08:59:04;;;;;;;4.35;1.65;;;12.20;74.70;;;;;;2342408;53;20984;-75
2022/11/19 09:01:31;;;;;;;4.37;1.50;;;12.20;75.30;;;;;;2589425;52;20988;-78
2022/11/19 09:03:57;;;;;;;3.75;1.50;;;12.20;74.70;;;;;;2528421;52;20981;-77
2022/11/19 09:06:24;;;;;;;3.97;1.40;;;12.20;74.70;;;;;;2362077;53;20924;-77
2022/11/19 09:08:50;;;;;;;3.10;1.23;;;12.20;74.60;;;;;;2345286;53;20929;-75
2022/11/19 09:11:17;;;;;;;2.40;1.00;;;12.30;74.70;;;;;;2378720;53;21407;-79
2022/11/19 09:13:44;;;;;;;2.47;1.25;;;12.30;74.60;;;;;;2570565;52;20939;-76
2022/11/19 09:16:10;;;;;;;3.08;1.25;;;12.30;74.60;;;;;;2599814;52;20919;-79
2022/11/19 09:18:38;;;;;;;3.05;1.05;;;12.30;74.60;;;;;;2371058;53;20903;-76
2022/11/19 09:21:05;;;;;;;3.12;1.20;;;12.30;74.70;;;;;;2406288;52;22197;-79
2022/11/19 09:23:31;;;;;;;2.67;1.10;;;12.30;74.70;;;;;;2623002;52;20957;-78
2022/11/19 09:26:14;;;;;;;3.17;1.10;;;12.40;74.80;;;;;;2483225;52;21021;-79
2022/11/19 09:28:40;;;;;;;3.33;1.00;;;12.40;74.70;;;;;;2595335;52;21084;-76
2022/11/19 09:31:09;;;;;;;2.78;1.10;;;12.40;74.80;;;;;;2445705;52;20993;-76
2022/11/19 09:33:36;;;;;;;2.37;0.90;;;12.40;74.80;;;;;;2343330;53;21374;-79
2022/11/19 09:36:03;;;;;;;3.30;1.08;;;12.50;74.90;;;;;;2453238;52;21052;-75
2022/11/19 09:38:34;;;;;;;2.67;1.00;;;12.50;75.00;;;;;;2343139;53;20948;-75
2022/11/19 09:42:56;;;;;;;2.00;0.80;;;12.50;75.00;;;;;;2589840;52;21494;-74
2022/11/19 09:47:17;;;;;;;1.67;0.70;;;12.50;75.00;;;;;;2512605;52;21205;-74
2022/11/19 09:49:51;;;;;;;1.92;0.85;;;12.60;74.70;;;;;;2502245;52;21024;-75
2022/11/19 09:52:18;;;;;;;1.55;0.60;;;12.60;74.90;;;;;;2342586;53;21301;-75
2022/11/19 09:54:49;;;;;;;2.00;0.88;;;12.70;75.10;;;;;;2588953;52;21080;-75
2022/11/19 09:57:23;;;;;;;3.35;1.02;;;12.70;75.20;;;;;;2616902;52;20994;-74
2022/11/19 09:59:49;;;;;;;1.90;0.80;;;12.70;75.20;;;;;;2623740;52;20930;-74
2022/11/19 10:02:17;;;;;;;2.00;0.80;;;12.70;75.50;;;;;;2370371;53;20923;-75
2022/11/19 10:04:44;;;;;;;3.12;1.20;;;12.70;75.60;;;;;;2624300;52;21360;-75
2022/11/19 10:07:43;;;;;;;2.20;0.90;;;12.80;75.70;;;;;;2370619;53;21702;-75
2022/11/19 10:12:52;;;;;;;2.37;0.88;;;12.80;75.20;;;;;;2587554;52;21453;-74
2022/11/19 10:15:30;;;;;;;2.75;0.95;;;13.00;75.00;;;;;;2342721;53;20897;-75
2022/11/19 10:18:09;;;;;;;3.92;0.82;;;13.00;75.60;;;;;;2611780;52;21042;-75
2022/11/19 10:20:57;;;;;;;3.28;0.90;;;13.00;75.60;;;;;;2536395;52;21004;-75
2022/11/19 10:24:16;;;;;;;1.37;0.62;;;13.10;75.30;;;;;;2557346;52;20914;-75
2022/11/19 10:26:48;;;;;;;2.12;0.73;;;13.10;75.40;;;;;;2563217;52;22176;-74
2022/11/19 10:29:15;;;;;;;3.53;1.20;;;13.20;75.70;;;;;;2390713;52;21478;-75
2022/11/19 10:31:46;;;;;;;3.05;0.98;;;13.20;75.70;;;;;;2595252;52;20960;-75
2022/11/19 10:34:29;;;;;;;3.80;1.08;;;13.20;75.60;;;;;;2588108;52;21477;-75
2022/11/19 10:37:01;;;;;;;4.20;0.90;;;13.20;75.10;;;;;;2471557;52;20905;-74
2022/11/19 10:39:40;;;;;;;2.00;0.80;;;13.30;75.40;;;;;;2588004;52;21436;-75
2022/11/19 10:42:28;;;;;;;2.78;1.00;;;13.30;74.90;;;;;;2563636;52;20965;-75
2022/11/19 10:45:20;;;;;;;2.22;0.85;;;13.40;74.90;;;;;;2615201;52;20973;-75
2022/11/19 10:48:07;;;;;;;3.10;1.15;;;13.40;74.50;;;;;;2342988;53;20939;-74
2022/11/19 10:50:35;;;;;;;1.90;0.80;;;13.40;74.20;;;;;;2590005;52;20997;-75
2022/11/19 10:53:07;;;;;;;5.45;2.78;;;13.40;74.60;;;;;;2590120;52;21019;-75
2022/11/19 10:55:38;;;;;;;3.00;1.33;;;13.40;74.40;;;;;;2589455;52;21374;-75
2022/11/19 10:58:22;;;;;;;3.17;1.40;;;13.40;74.30;;;;;;2355473;53;21486;-75
2022/11/19 11:00:48;;;;;;;2.70;1.10;;;13.40;74.00;;;;;;2342827;53;20941;-74
2022/11/19 11:03:24;;;;;;;3.22;1.08;;;13.40;74.10;;;;;;2601331;52;21573;-77
2022/11/19 11:06:00;;;;;;;3.65;1.20;;;13.40;74.00;;;;;;2371041;53;20930;-75
2022/11/19 11:08:27;;;;;;;3.17;1.00;;;13.40;74.70;;;;;;2623120;52;20927;-77
2022/11/19 11:10:53;;;;;;;1.80;0.70;;;13.40;74.30;;;;;;2370879;53;20923;-77
2022/11/19 11:16:43;;;;;;;1.70;0.80;;;13.50;74.20;;;;;;2370546;53;21002;-77
2022/11/19 11:19:17;;;;;;;3.42;0.70;;;13.50;74.00;;;;;;2370029;53;20918;-76
2022/11/19 11:21:43;;;;;;;2.08;0.77;;;13.50;74.20;;;;;;2377810;52;20923;-78
2022/11/19 11:24:10;;;;;;;4.00;0.88;;;13.50;74.20;;;;;;2370718;53;20974;-75
2022/11/19 11:26:37;;;;;;;2.08;0.80;;;13.50;74.20;;;;;;2589683;52;21748;-76
2022/11/19 11:32:35;;;;;;;2.67;1.08;;;13.50;74.20;;;;;;2370497;53;20961;-76
2022/11/19 11:35:01;;;;;;;5.35;1.20;;;13.50;73.00;;;;;;2623191;52;21502;-75
2022/11/19 11:37:31;;;;;;;2.95;1.17;;;13.50;73.70;;;;;;2370771;53;21081;-77
2022/11/19 11:39:57;;;;;;;2.50;0.98;;;13.50;73.80;;;;;;2623924;52;20977;-78
2022/11/19 11:42:25;;;;;;;2.47;1.00;;;13.40;73.80;;;;;;2536459;52;21380;-76
2022/11/19 11:44:55;;;;;;;3.00;1.00;;;13.40;73.80;;;;;;2622910;52;20934;-78
2022/11/19 11:47:25;;;;;;;2.87;1.00;;;13.40;73.70;;;;;;2370302;53;21282;-78
2022/11/19 11:50:34;;;;;;;2.90;1.20;;;13.40;73.70;;;;;;2622629;52;20971;-76
2022/11/19 11:53:06;;;;;;;2.25;0.80;;;13.40;73.10;;;;;;2371274;53;20927;-76
2022/11/19 11:55:32;;;;;;;2.83;1.00;;;13.40;73.70;;;;;;2623587;52;20990;-79
2022/11/19 11:58:01;;;;;;;3.28;1.25;;;13.40;73.80;;;;;;2370620;53;20950;-78
2022/11/19 12:00:38;;;;;;;3.75;1.70;;;13.40;73.90;;;;;;2449957;52;21416;-79
2022/11/19 12:03:13;;;;;;;4.37;1.73;;;13.40;73.70;;;;;;2370493;53;20965;-78
2022/11/19 12:10:44;;;;;;;4.25;1.85;;;13.40;73.90;;;;;;2623831;52;21604;-79
2022/11/19 12:14:04;;;;;;;6.97;3.03;;;13.40;73.10;;;;;;2370999;53;20879;-79
2022/11/19 12:16:55;;;;;;;23.58;8.55;;;13.50;73.30;;;;;;2623654;52;20978;-79
2022/11/19 12:19:46;;;;;;;39.70;16.95;;;13.50;74.00;;;;;;2370449;53;21074;-78
2022/11/19 12:22:28;;;;;;;19.23;8.77;;;13.40;74.00;;;;;;2383155;52;20949;-76
2022/11/19 12:25:24;;;;;;;11.80;5.60;;;13.40;74.00;;;;;;2370934;53;21233;-78
2022/11/19 12:28:27;;;;;;;9.80;3.97;;;13.40;74.00;;;;;;2623654;52;20961;-77
2022/11/19 12:32:37;;;;;;;12.30;6.20;;;13.50;73.90;;;;;;2370839;53;21318;-76
2022/11/19 12:44:56;;;;;;;8.05;2.95;;;13.50;74.20;;;;;;2623165;52;20915;-78
2022/11/19 12:47:38;;;;;;;2.87;1.10;;;13.60;73.50;;;;;;2459516;52;20965;-78
2022/11/19 12:51:51;;;;;;;3.95;1.02;;;13.60;74.50;;;;;;2486359;52;21530;-77
2022/11/19 12:54:44;;;;;;;3.15;1.05;;;13.60;74.30;;;;;;2372072;53;21042;-80
2022/11/19 12:59:02;;;;;;;;;;;13.70;74.40;;;;;;2394083;52;20934;-77
2022/11/19 13:01:32;;;;;;;1.45;0.65;;;13.70;73.60;;;;;;2450024;52;20137;-80
2022/11/19 13:07:09;;;;;;;2.40;0.88;;;13.70;74.30;;;;;;2371104;53;20938;-80
2022/11/19 13:09:42;;;;;;;2.00;1.00;;;13.70;74.00;;;;;;2623269;52;21290;-81
2022/11/19 13:12:17;;;;;;;2.67;0.90;;;13.80;75.30;;;;;;2436291;52;21439;-77
2022/11/19 13:14:51;;;;;;;3.55;1.02;;;13.80;75.60;;;;;;2370829;53;20929;-78
2022/11/19 13:17:27;;;;;;;2.60;1.02;;;13.80;75.90;;;;;;2593027;52;21396;-78
2022/11/19 13:20:09;;;;;;;2.40;1.10;;;13.90;76.20;;;;;;2407273;52;21081;-78
2022/11/19 13:22:37;;;;;;;2.78;1.17;;;13.90;76.40;;;;;;2408727;52;21009;-76
2022/11/19 13:25:19;;;;;;;2.00;0.80;;;14.00;76.60;;;;;;2440900;52;20985;-76
2022/11/19 13:27:46;;;;;;;2.87;1.00;;;14.00;76.30;;;;;;2580895;52;21386;-75
2022/11/19 13:30:17;;;;;;;2.70;1.00;;;14.10;76.50;;;;;;2588943;52;21529;-75
2022/11/19 13:33:19;;;;;;;2.45;0.82;;;14.20;76.10;;;;;;2590265;52;21465;-76
2022/11/19 13:38:54;;;;;;;1.98;0.73;;;14.20;75.20;;;;;;2392225;53;20985;-76
2022/11/19 13:45:06;;;;;;;1.83;0.60;;;14.30;74.50;;;;;;2342615;53;21394;-75
2022/11/19 13:47:56;;;;;;;5.10;1.98;;;14.40;75.70;;;;;;2342323;53;21465;-77
2022/11/19 13:50:42;;;;;;;2.90;1.23;;;14.40;74.50;;;;;;2452928;52;21568;-75
2022/11/19 13:53:17;;;;;;;2.28;1.02;;;14.50;74.70;;;;;;2597484;52;20910;-75
2022/11/19 13:55:44;;;;;;;2.00;0.80;;;14.50;75.30;;;;;;2353130;53;20950;-77
2022/11/19 13:58:20;;;;;;;3.25;0.80;;;14.50;75.30;;;;;;2507447;52;21222;-76
2022/11/19 14:08:39;;;;;;;1.95;0.80;;;14.50;74.80;;;;;;2349114;54;20942;-75
2022/11/19 14:13:25;;;;;;;1.67;0.60;;;14.50;73.70;;;;;;2623370;52;21511;-75
2022/11/19 14:28:42;;;;;;;2.12;1.00;;;14.50;72.20;;;;;;2623465;52;21419;-75
2022/11/19 14:31:09;;;;;;;2.25;1.00;;;14.40;72.40;;;;;;2370658;53;21262;-75
2022/11/19 14:34:23;;;;;;;1.80;0.82;;;14.40;73.30;;;;;;2496008;52;21863;-75
2022/11/19 14:36:49;;;;;;;2.17;0.88;;;14.40;72.20;;;;;;2347914;53;20952;-78
2022/11/19 14:39:26;;;;;;;2.97;1.23;;;14.30;73.20;;;;;;2589370;52;21548;-75
2022/11/19 14:42:13;;;;;;;3.08;1.33;;;14.30;72.80;;;;;;2604579;52;20950;-79
2022/11/19 14:44:40;;;;;;;3.45;1.48;;;14.30;72.40;;;;;;2624050;52;21021;-76
2022/11/19 14:50:39;;;;;;;2.95;1.35;;;14.20;73.00;;;;;;2385012;52;20978;-77
2022/11/19 14:53:14;;;;;;;2.40;1.00;;;14.20;71.90;;;;;;2623778;52;21443;-75